Time;durP1;ratioP1;P1;durP2;ratioP2;P2;SDS_P1;SDS_P2;PMS_P1;PMS_P2;Temp;Humidity;BMP_temperature;BMP_pressure;BME280_temperature;BME280_humidity;BME280_pressure;Samples;Min_cycle;Max_cycle;Signal;HPM_P1;HPM_P2
2021/09/29 00:01:41;;;;;;;10.40;2.60;;;11.30;99.90;;;;;;5012898;28;20296;-63
2021/09/29 00:04:09;;;;;;;8.03;2.10;;;11.30;1.00;;;;;;5012731;28;20262;-64
2021/09/29 00:06:35;;;;;;;6.07;1.97;;;11.30;1.00;;;;;;5012642;28;20264;-64
2021/09/29 00:09:03;;;;;;;3.23;1.83;;;11.30;95.30;;;;;;5012900;28;20701;-64
2021/09/29 00:11:29;;;;;;;5.53;2.27;;;11.30;87.90;;;;;;5012836;28;20264;-64
2021/09/29 00:13:56;;;;;;;9.17;2.50;;;11.30;99.90;;;;;;5012729;28;20238;-64
2021/09/29 00:16:23;;;;;;;13.40;2.27;;;11.30;99.90;;;;;;5012556;28;20220;-66
2021/09/29 00:18:50;;;;;;;8.10;2.03;;;11.30;99.90;;;;;;5012330;28;20702;-64
2021/09/29 00:21:18;;;;;;;6.80;1.93;;;11.40;99.90;;;;;;5012754;28;20208;-62
2021/09/29 00:23:46;;;;;;;7.43;2.13;;;11.40;99.90;;;;;;5012565;28;20215;-63
2021/09/29 00:26:13;;;;;;;8.30;2.17;;;11.40;1.00;;;;;;5012516;28;20261;-63
2021/09/29 00:28:40;;;;;;;7.67;2.00;;;11.50;99.90;;;;;;5012314;28;20686;-63
2021/09/29 00:31:12;;;;;;;9.67;1.90;;;11.50;99.90;;;;;;5012313;28;20738;-64
2021/09/29 00:33:45;;;;;;;8.77;2.23;;;11.50;72.80;;;;;;5012757;28;20297;-63
2021/09/29 00:36:12;;;;;;;7.00;1.63;;;11.50;1.00;;;;;;5012362;28;20207;-63
2021/09/29 00:38:40;;;;;;;5.93;2.20;;;11.60;1.00;;;;;;5012349;28;20288;-63
2021/09/29 00:41:07;;;;;;;3.93;1.90;;;11.60;1.00;;;;;;5012488;28;20676;-64
2021/09/29 00:43:33;;;;;;;5.87;1.97;;;11.60;99.90;;;;;;5012541;28;20254;-64
2021/09/29 00:46:00;;;;;;;7.57;2.37;;;11.60;99.90;;;;;;5011824;28;20256;-62
2021/09/29 00:48:27;;;;;;;5.43;2.00;;;11.60;99.90;;;;;;5012377;28;20223;-63
2021/09/29 00:50:54;;;;;;;8.40;2.23;;;11.60;99.90;;;;;;5012164;28;20676;-63
2021/09/29 00:53:21;;;;;;;6.67;2.10;;;11.60;99.90;;;;;;5012433;28;20205;-63
2021/09/29 00:55:49;;;;;;;3.70;1.80;;;11.60;99.90;;;;;;5011923;28;20265;-63
2021/09/29 00:58:16;;;;;;;9.30;2.50;;;11.60;99.90;;;;;;5011899;28;20227;-63
2021/09/29 01:00:42;;;;;;;10.97;2.30;;;11.60;99.90;;;;;;5012043;28;20677;-63
2021/09/29 01:03:09;;;;;;;7.33;2.30;;;11.60;99.90;;;;;;5012353;28;20203;-63
2021/09/29 01:05:39;;;;;;;8.23;2.47;;;11.60;99.90;;;;;;5013961;28;20207;-62
2021/09/29 01:08:12;;;;;;;4.50;2.10;;;11.60;99.90;;;;;;5015975;28;20726;-63
2021/09/29 01:10:45;;;;;;;4.10;2.27;;;11.60;99.90;;;;;;5016213;28;20562;-63
2021/09/29 01:13:23;;;;;;;8.67;2.60;;;11.60;99.90;;;;;;5016164;28;20267;-63
2021/09/29 01:15:53;;;;;;;6.73;2.30;;;11.60;99.90;;;;;;5015937;28;20207;-63
2021/09/29 01:18:23;;;;;;;5.53;2.13;;;11.60;99.90;;;;;;5015961;28;20227;-63
2021/09/29 01:20:53;;;;;;;10.30;2.47;;;11.60;99.90;;;;;;5015943;28;20266;-63
2021/09/29 01:23:32;;;;;;;6.33;2.23;;;11.50;99.90;;;;;;5015623;28;20207;-63
2021/09/29 01:26:22;;;;;;;5.97;1.97;;;11.50;99.90;;;;;;5015679;28;20212;-63
2021/09/29 01:28:52;;;;;;;5.37;2.27;;;11.50;99.90;;;;;;5011167;28;20748;-64
2021/09/29 01:31:21;;;;;;;8.60;2.23;;;11.50;30.00;;;;;;5015715;28;20220;-64
2021/09/29 01:33:49;;;;;;;6.67;2.50;;;11.50;1.00;;;;;;5015501;28;20666;-63
2021/09/29 01:36:18;;;;;;;4.77;1.97;;;11.50;1.00;;;;;;5015351;28;20215;-64
2021/09/29 01:38:48;;;;;;;6.03;2.20;;;11.50;90.00;;;;;;5015625;28;20244;-64
2021/09/29 01:41:14;;;;;;;7.90;2.77;;;11.50;99.90;;;;;;5015487;28;20295;-63
2021/09/29 01:43:42;;;;;;;8.97;3.03;;;11.40;99.90;;;;;;5015762;28;20203;-62
2021/09/29 01:46:09;;;;;;;5.37;2.40;;;11.40;99.90;;;;;;5014961;28;20207;-62
2021/09/29 01:48:45;;;;;;;9.60;2.80;;;11.30;99.90;;;;;;5015974;28;20239;-63
2021/09/29 01:51:12;;;;;;;6.97;2.30;;;11.30;1.00;;;;;;5016353;28;20195;-63
2021/09/29 01:53:40;;;;;;;4.43;2.27;;;11.30;1.00;;;;;;5015297;28;20211;-61
2021/09/29 01:56:07;;;;;;;7.10;2.50;;;11.30;1.00;;;;;;5014807;28;20207;-63
2021/09/29 01:58:34;;;;;;;10.53;2.40;;;11.30;45.20;;;;;;5014891;28;20282;-62
2021/09/29 02:01:02;;;;;;;7.20;2.20;;;11.30;99.90;;;;;;5014959;28;20214;-63
2021/09/29 02:03:29;;;;;;;5.47;2.20;;;11.30;99.90;;;;;;5015196;28;20212;-62
2021/09/29 02:05:56;;;;;;;6.53;2.53;;;11.30;99.90;;;;;;5015012;28;20626;-63
2021/09/29 02:08:22;;;;;;;5.90;2.23;;;11.30;99.90;;;;;;5014990;28;20274;-63
2021/09/29 02:10:49;;;;;;;9.27;2.60;;;11.30;99.90;;;;;;5014942;28;20667;-63
2021/09/29 02:13:15;;;;;;;11.23;2.50;;;11.30;99.90;;;;;;5014589;28;20203;-62
2021/09/29 02:15:42;;;;;;;8.93;2.60;;;11.20;99.90;;;;;;5014070;28;20207;-62
2021/09/29 02:18:10;;;;;;;7.40;2.50;;;11.20;99.90;;;;;;5014801;28;20233;-62
2021/09/29 02:20:37;;;;;;;6.10;2.40;;;11.20;99.90;;;;;;5014974;28;20223;-63
2021/09/29 02:23:04;;;;;;;5.30;2.37;;;11.20;1.00;;;;;;5014817;28;20263;-63
2021/09/29 02:25:30;;;;;;;7.57;2.30;;;11.10;99.90;;;;;;5014295;28;20208;-62
2021/09/29 02:27:57;;;;;;;4.80;2.27;;;11.10;1.00;;;;;;5014461;28;20721;-63
2021/09/29 02:30:23;;;;;;;9.17;3.10;;;11.10;1.00;;;;;;5014676;28;20238;-62
2021/09/29 02:32:50;;;;;;;7.30;2.70;;;11.10;1.00;;;;;;5014653;28;20205;-63
2021/09/29 02:35:18;;;;;;;5.70;2.40;;;11.10;1.00;;;;;;5014156;28;20297;-63
2021/09/29 02:37:45;;;;;;;7.57;2.83;;;11.10;1.00;;;;;;5014347;28;20287;-63
2021/09/29 02:40:13;;;;;;;6.57;2.33;;;11.10;1.00;;;;;;5014172;28;20228;-62
2021/09/29 02:42:39;;;;;;;7.17;2.60;;;11.10;1.00;;;;;;5014070;28;20210;-62
2021/09/29 02:45:07;;;;;;;5.93;2.40;;;11.10;1.00;;;;;;5014105;28;20790;-63
2021/09/29 02:47:34;;;;;;;5.87;2.50;;;11.10;1.00;;;;;;5014186;28;20264;-63
2021/09/29 02:50:00;;;;;;;7.20;2.60;;;11.10;99.00;;;;;;5014146;28;20199;-62
2021/09/29 02:52:28;;;;;;;8.50;2.50;;;11.10;10.70;;;;;;5014085;28;20203;-62
2021/09/29 02:54:55;;;;;;;5.60;2.73;;;11.10;1.00;;;;;;5013617;28;20585;-63
2021/09/29 02:57:22;;;;;;;6.50;2.43;;;11.10;99.90;;;;;;5013878;28;20219;-63
2021/09/29 02:59:48;;;;;;;6.67;2.53;;;11.20;99.90;;;;;;5013518;28;20234;-63
2021/09/29 03:02:15;;;;;;;5.93;2.30;;;11.20;99.90;;;;;;5014099;28;20229;-62
2021/09/29 03:04:42;;;;;;;4.73;2.47;;;11.20;99.90;;;;;;5013870;28;20211;-63
2021/09/29 03:07:08;;;;;;;6.27;2.40;;;11.30;8.70;;;;;;5014240;28;20558;-63
2021/09/29 03:09:36;;;;;;;4.40;2.50;;;11.30;99.90;;;;;;5013484;28;20273;-63
2021/09/29 03:12:04;;;;;;;8.17;2.43;;;11.40;99.90;;;;;;5013894;28;20207;-62
2021/09/29 03:14:30;;;;;;;8.20;2.70;;;11.30;31.80;;;;;;5013369;28;20729;-62
2021/09/29 03:16:57;;;;;;;6.20;2.70;;;11.40;1.00;;;;;;5013558;28;20711;-63
2021/09/29 03:19:24;;;;;;;8.80;2.50;;;11.40;1.00;;;;;;5013487;28;20232;-63
2021/09/29 03:21:51;;;;;;;5.40;2.50;;;11.30;1.00;;;;;;5013566;28;20234;-63
2021/09/29 03:24:20;;;;;;;9.40;2.57;;;11.40;99.90;;;;;;5013264;28;20209;-63
2021/09/29 03:26:48;;;;;;;5.30;2.57;;;11.40;99.90;;;;;;5013214;28;20243;-63
2021/09/29 03:29:15;;;;;;;7.67;2.70;;;11.40;37.80;;;;;;5012643;28;20283;-62
2021/09/29 03:31:41;;;;;;;4.53;2.53;;;11.40;1.00;;;;;;5013329;28;20228;-62
2021/09/29 03:34:08;;;;;;;6.13;2.40;;;11.40;1.00;;;;;;5013517;28;20204;-63
2021/09/29 03:36:35;;;;;;;7.93;2.63;;;11.40;1.00;;;;;;5013014;28;20214;-63
2021/09/29 03:39:02;;;;;;;5.03;2.87;;;11.40;1.00;;;;;;5013426;28;20312;-62
2021/09/29 03:41:29;;;;;;;7.23;2.93;;;11.40;1.00;;;;;;5013525;28;20208;-63
2021/09/29 03:43:56;;;;;;;7.73;2.33;;;11.50;99.90;;;;;;5013509;28;20213;-63
2021/09/29 03:46:23;;;;;;;7.87;2.50;;;11.40;1.00;;;;;;5012974;28;20621;-63
2021/09/29 03:48:50;;;;;;;8.03;2.83;;;11.40;1.00;;;;;;5013320;28;20291;-63
2021/09/29 03:51:16;;;;;;;19.87;7.20;;;11.40;99.90;;;;;;5013020;28;20212;-63
2021/09/29 03:53:43;;;;;;;6.53;2.80;;;11.50;1.00;;;;;;5013058;28;20211;-63
2021/09/29 03:56:10;;;;;;;5.07;2.83;;;11.50;1.00;;;;;;5012932;28;20395;-63
2021/09/29 03:58:36;;;;;;;9.63;2.47;;;11.50;99.90;;;;;;5012858;28;20339;-63
2021/09/29 04:01:04;;;;;;;5.27;2.73;;;11.50;68.20;;;;;;5012901;28;20210;-63
2021/09/29 04:03:31;;;;;;;9.40;3.17;;;11.50;1.00;;;;;;5013069;28;20258;-63
2021/09/29 04:05:58;;;;;;;5.53;2.50;;;11.60;1.00;;;;;;5012395;28;20203;-63
2021/09/29 04:08:24;;;;;;;6.17;2.60;;;11.60;1.00;;;;;;5012779;28;20233;-62
2021/09/29 04:10:51;;;;;;;9.43;2.80;;;11.70;99.90;;;;;;5012876;28;20211;-63
2021/09/29 04:13:18;;;;;;;6.93;2.70;;;11.70;99.90;;;;;;5012955;28;20266;-63
2021/09/29 04:15:44;;;;;;;4.97;2.47;;;11.70;1.00;;;;;;5012516;28;20206;-62
2021/09/29 04:18:12;;;;;;;4.90;2.33;;;11.80;1.00;;;;;;5012488;28;20230;-63
2021/09/29 04:20:40;;;;;;;5.70;2.43;;;11.70;1.00;;;;;;5012395;28;20304;-62
2021/09/29 04:23:09;;;;;;;6.93;3.00;;;11.70;1.00;;;;;;5007423;28;20212;-63
2021/09/29 04:25:36;;;;;;;4.17;2.30;;;11.80;1.00;;;;;;5012266;28;20346;-63
2021/09/29 04:28:03;;;;;;;4.93;2.33;;;11.70;1.00;;;;;;5012378;28;20239;-63
2021/09/29 04:30:30;;;;;;;4.83;2.60;;;11.70;1.00;;;;;;5012293;28;20258;-62
2021/09/29 04:32:59;;;;;;;8.37;2.90;;;11.70;1.00;;;;;;5012290;28;20213;-62
2021/09/29 04:35:27;;;;;;;7.03;2.80;;;11.70;1.00;;;;;;5010997;28;20300;-62
2021/09/29 04:37:53;;;;;;;9.33;2.87;;;11.70;99.90;;;;;;5009042;28;20250;-62
2021/09/29 04:40:20;;;;;;;7.07;2.77;;;11.70;1.00;;;;;;5011816;28;20226;-62
2021/09/29 04:42:47;;;;;;;7.17;2.40;;;11.70;1.00;;;;;;5012212;28;20212;-63
2021/09/29 04:45:13;;;;;;;4.27;2.30;;;11.60;1.00;;;;;;5011679;28;20347;-62
2021/09/29 04:47:40;;;;;;;6.50;3.00;;;11.60;37.00;;;;;;5011724;28;20715;-62
2021/09/29 04:50:07;;;;;;;10.83;3.20;;;11.60;1.00;;;;;;5012337;28;20234;-63
2021/09/29 04:52:35;;;;;;;7.07;2.80;;;11.60;22.40;;;;;;5012057;28;20211;-63
2021/09/29 04:55:02;;;;;;;5.93;2.90;;;11.60;1.00;;;;;;5011726;28;20218;-63
2021/09/29 04:57:29;;;;;;;4.40;2.67;;;11.50;99.90;;;;;;5011866;28;20265;-63
2021/09/29 04:59:56;;;;;;;6.37;3.10;;;11.50;99.90;;;;;;5011408;28;21025;-63
2021/09/29 05:02:24;;;;;;;4.80;2.57;;;11.50;99.90;;;;;;5012029;28;20215;-64
2021/09/29 05:04:51;;;;;;;7.10;3.13;;;11.50;99.90;;;;;;5011842;28;20261;-63
2021/09/29 05:07:20;;;;;;;9.67;3.37;;;11.50;1.00;;;;;;5011653;28;20211;-63
2021/09/29 05:09:50;;;;;;;8.57;3.00;;;11.50;1.00;;;;;;5011816;28;20199;-63
2021/09/29 05:12:21;;;;;;;6.67;2.97;;;11.40;1.00;;;;;;5011863;28;20208;-63
2021/09/29 05:14:48;;;;;;;5.90;3.13;;;11.50;1.00;;;;;;5011357;28;20290;-63
2021/09/29 05:17:15;;;;;;;5.10;2.70;;;11.50;1.00;;;;;;5011719;28;20203;-63
2021/09/29 05:19:42;;;;;;;4.83;2.97;;;11.50;99.90;;;;;;5011810;28;20662;-63
2021/09/29 05:22:08;;;;;;;8.93;2.93;;;11.50;1.00;;;;;;5011630;28;20293;-65
2021/09/29 05:24:35;;;;;;;6.10;2.63;;;11.40;1.00;;;;;;5011353;28;20207;-63
2021/09/29 05:27:04;;;;;;;5.90;2.93;;;11.50;1.00;;;;;;5011234;28;20207;-63
2021/09/29 05:29:31;;;;;;;7.83;3.33;;;11.40;1.00;;;;;;5011763;28;20244;-62
2021/09/29 05:31:58;;;;;;;7.07;3.13;;;11.40;99.90;;;;;;5011866;28;20651;-63
2021/09/29 05:34:25;;;;;;;4.10;3.00;;;11.30;1.00;;;;;;5011795;28;20205;-63
2021/09/29 05:36:52;;;;;;;6.77;2.83;;;11.30;1.00;;;;;;5011302;28;20262;-65
2021/09/29 05:39:19;;;;;;;6.40;3.20;;;11.30;1.00;;;;;;5009166;28;20273;-64
2021/09/29 05:41:46;;;;;;;7.57;3.17;;;11.30;2.70;;;;;;5011159;28;20653;-63
2021/09/29 05:44:14;;;;;;;6.27;3.17;;;11.30;1.00;;;;;;5007161;28;20997;-63
2021/09/29 05:46:41;;;;;;;10.37;3.27;;;11.30;37.80;;;;;;5010570;28;20676;-63
2021/09/29 05:49:08;;;;;;;4.97;3.10;;;11.30;99.90;;;;;;5009986;28;20230;-63
2021/09/29 05:51:34;;;;;;;5.10;3.20;;;11.30;99.90;;;;;;5012816;28;20216;-63
2021/09/29 05:54:01;;;;;;;7.60;3.53;;;11.30;99.90;;;;;;5014308;28;20687;-63
2021/09/29 05:56:27;;;;;;;6.93;3.23;;;11.30;99.90;;;;;;5013808;28;20215;-63
2021/09/29 05:58:54;;;;;;;6.63;2.97;;;11.40;26.70;;;;;;5014254;28;20235;-65
2021/09/29 06:01:22;;;;;;;6.73;3.43;;;11.40;1.00;;;;;;5014603;28;20623;-65
2021/09/29 06:03:49;;;;;;;6.23;2.80;;;11.50;99.90;;;;;;5014969;28;20207;-67
2021/09/29 06:06:15;;;;;;;5.53;3.30;;;11.50;1.00;;;;;;5013814;28;20346;-64
2021/09/29 06:08:42;;;;;;;6.67;3.13;;;11.60;99.90;;;;;;5014516;28;20231;-64
2021/09/29 06:11:08;;;;;;;6.40;2.43;;;11.60;99.90;;;;;;5014419;28;20220;-64
2021/09/29 06:13:35;;;;;;;6.90;2.97;;;11.70;1.00;;;;;;5014360;28;20668;-65
2021/09/29 06:16:06;;;;;;;4.83;3.07;;;11.80;99.90;;;;;;5013809;28;20207;-64
2021/09/29 06:18:35;;;;;;;5.00;2.70;;;11.90;92.60;;;;;;5014242;28;20227;-65
2021/09/29 06:21:03;;;;;;;4.73;2.40;;;12.00;99.90;;;;;;5013968;28;20633;-68
2021/09/29 06:23:30;;;;;;;6.80;2.50;;;12.10;1.00;;;;;;5014206;28;20780;-68
2021/09/29 06:25:57;;;;;;;4.93;2.73;;;12.30;99.90;;;;;;5013629;28;20216;-68
2021/09/29 06:28:23;;;;;;;7.73;2.77;;;12.50;99.90;;;;;;5013981;28;20623;-68
2021/09/29 06:30:50;;;;;;;5.97;3.00;;;12.60;1.00;;;;;;5013898;28;20206;-66
2021/09/29 06:33:17;;;;;;;5.03;2.40;;;12.80;99.90;;;;;;5013778;28;20210;-66
2021/09/29 06:35:45;;;;;;;8.90;2.97;;;12.90;1.00;;;;;;5013131;28;20211;-65
2021/09/29 06:38:11;;;;;;;3.83;2.13;;;13.00;1.00;;;;;;5013617;28;20242;-66
2021/09/29 06:40:38;;;;;;;7.43;2.43;;;13.10;1.00;;;;;;5013841;28;20227;-64
2021/09/29 06:43:05;;;;;;;3.80;2.30;;;13.20;99.90;;;;;;5013781;28;20601;-65
2021/09/29 06:45:32;;;;;;;4.23;2.70;;;13.20;99.90;;;;;;5013079;28;20210;-65
2021/09/29 06:47:59;;;;;;;4.73;2.10;;;13.30;1.00;;;;;;5013467;28;20250;-66
2021/09/29 06:50:26;;;;;;;3.60;2.13;;;13.30;99.90;;;;;;5013305;28;20675;-66
2021/09/29 06:52:54;;;;;;;6.77;2.40;;;13.30;99.90;;;;;;5013513;28;20687;-65
2021/09/29 06:55:21;;;;;;;5.63;2.17;;;13.30;99.90;;;;;;5012972;28;20277;-68
2021/09/29 06:57:47;;;;;;;3.13;2.03;;;13.20;99.90;;;;;;5013483;28;20257;-66
2021/09/29 07:00:15;;;;;;;9.80;2.63;;;13.30;1.00;;;;;;5013178;28;20242;-66
2021/09/29 07:02:44;;;;;;;7.40;2.57;;;13.10;99.90;;;;;;5012470;28;20539;-65
2021/09/29 07:05:11;;;;;;;7.50;2.73;;;13.00;1.00;;;;;;5013209;28;20937;-63
2021/09/29 07:07:38;;;;;;;8.80;2.50;;;13.00;99.90;;;;;;5013639;28;20573;-63
2021/09/29 07:10:08;;;;;;;4.23;2.37;;;13.10;1.00;;;;;;5013287;28;20232;-64
2021/09/29 07:12:35;;;;;;;7.97;2.57;;;13.20;1.00;;;;;;5013374;28;20203;-62
2021/09/29 07:15:03;;;;;;;6.23;2.53;;;13.10;99.90;;;;;;5012404;28;20215;-62
2021/09/29 07:17:29;;;;;;;7.33;2.90;;;13.10;99.90;;;;;;5012981;28;20642;-64
2021/09/29 07:19:58;;;;;;;3.93;2.33;;;13.10;29.60;;;;;;5012717;28;20711;-63
2021/09/29 07:22:25;;;;;;;4.23;2.50;;;13.00;99.90;;;;;;5013074;28;20207;-63
2021/09/29 07:24:51;;;;;;;5.03;2.53;;;12.90;99.90;;;;;;5012525;28;20209;-62
2021/09/29 07:27:20;;;;;;;7.20;2.40;;;12.90;1.00;;;;;;5013152;28;20213;-63
2021/09/29 07:29:47;;;;;;;6.20;2.67;;;12.90;1.00;;;;;;5012957;28;20277;-62
2021/09/29 07:32:13;;;;;;;5.63;2.63;;;12.80;99.90;;;;;;5012488;28;20217;-64
2021/09/29 07:34:40;;;;;;;5.87;2.40;;;12.90;1.00;;;;;;5012340;28;20217;-65
2021/09/29 07:37:07;;;;;;;6.37;2.47;;;12.80;99.90;;;;;;5012475;28;20260;-64
2021/09/29 07:39:33;;;;;;;5.83;2.50;;;12.80;1.00;;;;;;5012702;28;20610;-64
2021/09/29 07:42:00;;;;;;;8.27;2.90;;;12.70;1.00;;;;;;5012622;28;20210;-65
2021/09/29 07:44:28;;;;;;;9.27;2.70;;;12.80;99.90;;;;;;5012246;28;20212;-65
2021/09/29 07:46:55;;;;;;;5.17;2.30;;;12.80;99.90;;;;;;5012018;28;20549;-64
2021/09/29 07:49:22;;;;;;;6.57;2.80;;;12.90;99.90;;;;;;5012279;28;20231;-64
2021/09/29 07:51:49;;;;;;;5.97;3.00;;;12.90;99.90;;;;;;5012507;28;20213;-64
2021/09/29 07:54:15;;;;;;;7.37;2.70;;;13.00;1.00;;;;;;5012383;28;20210;-66
2021/09/29 07:56:42;;;;;;;6.10;2.50;;;13.00;99.90;;;;;;5012238;28;20257;-64
2021/09/29 07:59:09;;;;;;;6.07;2.77;;;13.00;1.00;;;;;;5011864;28;20238;-61
2021/09/29 08:01:37;;;;;;;6.93;2.87;;;12.90;99.90;;;;;;5012237;28;20237;-61
2021/09/29 08:04:04;;;;;;;4.73;2.67;;;12.90;99.90;;;;;;5012324;28;20217;-61
2021/09/29 08:06:31;;;;;;;5.30;2.57;;;12.90;1.00;;;;;;5012633;28;20210;-62
2021/09/29 08:08:57;;;;;;;6.30;2.60;;;12.90;99.90;;;;;;5013333;28;20222;-62
2021/09/29 08:11:24;;;;;;;5.03;2.10;;;13.00;96.70;;;;;;5012969;28;20265;-63
2021/09/29 08:13:51;;;;;;;5.80;2.17;;;13.10;24.80;;;;;;5012549;28;20203;-65
2021/09/29 08:16:18;;;;;;;6.47;2.77;;;13.10;99.90;;;;;;5013025;28;20214;-65
2021/09/29 08:18:47;;;;;;;7.77;2.80;;;13.10;99.90;;;;;;5012022;28;20325;-66
2021/09/29 08:21:16;;;;;;;6.50;2.87;;;13.00;1.00;;;;;;5012390;28;20237;-66
2021/09/29 08:23:47;;;;;;;3.80;2.70;;;12.90;99.90;;;;;;5012534;28;20206;-66
2021/09/29 08:29:13;;;;;;;6.93;2.80;;;12.90;28.80;;;;;;5011736;28;20292;-66
2021/09/29 08:31:43;;;;;;;6.33;2.73;;;12.90;42.50;;;;;;5011883;28;20209;-66
2021/09/29 08:34:18;;;;;;;5.57;3.03;;;12.90;1.00;;;;;;5011606;28;20209;-66
2021/09/29 08:36:50;;;;;;;5.10;2.93;;;12.90;24.40;;;;;;5010785;28;20218;-65
2021/09/29 08:39:24;;;;;;;5.93;3.23;;;12.80;99.90;;;;;;5011697;28;20807;-64
2021/09/29 08:42:05;;;;;;;7.87;3.40;;;12.80;99.90;;;;;;5011403;28;20264;-66
2021/09/29 08:44:39;;;;;;;5.93;3.10;;;12.90;99.90;;;;;;5011237;28;20624;-65
2021/09/29 08:47:15;;;;;;;6.30;2.93;;;12.80;99.90;;;;;;5011148;28;20297;-65
2021/09/29 09:17:06;;;;;;;6.40;3.57;;;12.50;99.90;;;;;;4985510;28;20615;-64
2021/09/29 09:19:33;;;;;;;5.60;2.90;;;12.60;1.00;;;;;;5011354;28;20272;-64
2021/09/29 09:22:03;;;;;;;4.87;3.10;;;12.70;1.00;;;;;;5010948;28;20281;-65
2021/09/29 09:24:32;;;;;;;4.80;2.73;;;12.70;1.00;;;;;;5010915;28;20221;-66
2021/09/29 09:27:01;;;;;;;5.03;3.13;;;12.70;1.00;;;;;;5012307;28;20211;-66
2021/09/29 09:29:28;;;;;;;5.20;3.10;;;12.70;99.90;;;;;;5014989;28;20230;-65
2021/09/29 09:32:06;;;;;;;5.33;3.33;;;12.60;1.00;;;;;;5015071;28;20228;-66
2021/09/29 09:34:33;;;;;;;8.33;3.63;;;12.60;1.00;;;;;;5014526;28;20630;-65
2021/09/29 09:37:01;;;;;;;6.33;3.43;;;12.60;1.00;;;;;;5014580;28;20261;-65
2021/09/29 09:39:29;;;;;;;8.23;3.43;;;12.60;1.00;;;;;;5014602;28;20265;-66
2021/09/29 09:41:58;;;;;;;7.77;3.60;;;12.60;1.00;;;;;;5014782;28;20235;-69
2021/09/29 09:44:26;;;;;;;7.40;4.00;;;12.60;1.00;;;;;;5014523;28;20241;-65
2021/09/29 09:47:03;;;;;;;6.77;3.57;;;12.60;1.00;;;;;;5013946;28;20686;-68
2021/09/29 09:49:30;;;;;;;6.10;4.00;;;12.60;1.00;;;;;;5014526;28;20237;-67
2021/09/29 09:52:00;;;;;;;5.67;3.53;;;12.60;1.00;;;;;;5014141;28;20260;-63
2021/09/29 09:54:39;;;;;;;6.77;3.80;;;12.60;1.00;;;;;;5014452;28;20213;-66
2021/09/29 09:57:18;;;;;;;6.40;3.27;;;12.50;1.00;;;;;;5013700;28;20214;-62
2021/09/29 09:59:48;;;;;;;4.93;3.40;;;12.50;1.00;;;;;;5014335;28;20251;-62
2021/09/29 10:02:14;;;;;;;4.67;3.60;;;12.40;99.90;;;;;;5014355;28;20319;-67
2021/09/29 10:04:41;;;;;;;4.80;3.77;;;12.30;1.00;;;;;;5014253;28;20209;-66
2021/09/29 10:07:08;;;;;;;7.00;3.53;;;12.20;1.00;;;;;;5014527;28;20213;-68
2021/09/29 10:09:39;;;;;;;5.80;2.80;;;12.20;1.00;;;;;;5014540;28;20225;-68
2021/09/29 10:12:20;;;;;;;4.93;2.70;;;12.20;99.90;;;;;;5014417;28;20680;-66
2021/09/29 10:15:22;;;;;;;6.70;2.73;;;12.20;99.90;;;;;;5013633;28;20212;-62
2021/09/29 10:23:29;;;;;;;2.57;2.00;;;12.50;99.90;;;;;;5014683;28;20208;-67
2021/09/29 10:26:15;;;;;;;4.23;1.80;;;12.60;99.90;;;;;;5013565;28;20213;-67
2021/09/29 10:28:44;;;;;;;5.00;1.97;;;12.70;99.90;;;;;;5014144;28;20226;-66
2021/09/29 10:31:23;;;;;;;5.73;2.13;;;12.80;99.90;;;;;;5014533;28;20250;-64
2021/09/29 10:33:59;;;;;;;3.07;1.10;;;12.90;99.90;;;;;;5014458;28;20269;-61
2021/09/29 10:36:40;;;;;;;1.93;1.27;;;12.90;1.00;;;;;;5013310;28;20210;-61
2021/09/29 10:42:00;;;;;;;1.37;0.90;;;12.80;99.90;;;;;;5013837;28;20300;-61
2021/09/29 10:45:06;;;;;;;1.63;0.73;;;12.70;1.00;;;;;;5013923;28;20224;-61
2021/09/29 10:47:39;;;;;;;1.07;0.70;;;12.70;99.90;;;;;;5013482;28;20219;-64
2021/09/29 10:53:17;;;;;;;2.10;0.90;;;12.70;99.90;;;;;;5012589;28;20209;-62
2021/09/29 11:07:25;;;;;;;1.70;0.80;;;13.00;99.90;;;;;;5000558;28;20310;-65
2021/09/29 11:10:17;;;;;;;1.57;0.80;;;13.00;1.00;;;;;;5013659;28;20203;-67
2021/09/29 11:29:46;;;;;;;1.37;1.00;;;12.50;49.80;;;;;;5012912;28;20244;-63
2021/09/29 11:32:20;;;;;;;1.60;1.40;;;12.40;99.90;;;;;;5013179;28;20597;-64
2021/09/29 11:34:49;;;;;;;2.97;1.50;;;12.50;1.00;;;;;;5012384;28;20287;-61
2021/09/29 12:08:31;;;;;;;4.13;2.27;;;12.00;99.90;;;;;;4992522;28;20296;-64
2021/09/29 12:11:02;;;;;;;3.40;3.10;;;11.80;99.90;;;;;;4992701;28;20251;-65
2021/09/29 12:13:43;;;;;;;3.00;2.73;;;11.50;1.00;;;;;;4992393;28;20260;-61
2021/09/29 12:16:10;;;;;;;3.83;3.10;;;11.40;1.00;;;;;;4992127;28;20653;-63
2021/09/29 12:18:36;;;;;;;4.47;3.50;;;11.20;1.00;;;;;;4992381;28;20231;-63
2021/09/29 12:21:04;;;;;;;4.00;3.10;;;11.10;1.00;;;;;;4992712;28;20223;-63
2021/09/29 12:23:32;;;;;;;3.73;2.97;;;11.10;1.00;;;;;;4992779;28;20208;-62
2021/09/29 12:26:18;;;;;;;3.07;2.70;;;11.10;1.00;;;;;;4992059;28;20294;-65
2021/09/29 12:29:00;;;;;;;3.77;2.67;;;11.20;1.00;;;;;;4992593;28;20318;-69
2021/09/29 12:31:44;;;;;;;3.10;2.90;;;11.20;1.00;;;;;;4997840;28;20207;-63
2021/09/29 12:34:23;;;;;;;3.03;2.73;;;11.40;1.00;;;;;;5011632;28;20755;-62
2021/09/29 12:36:50;;;;;;;5.43;3.70;;;11.80;91.70;;;;;;5011605;28;20297;-62
2021/09/29 12:39:21;;;;;;;3.73;3.00;;;12.10;99.90;;;;;;5011947;28;20231;-62
2021/09/29 12:41:49;;;;;;;2.80;2.60;;;12.40;31.70;;;;;;5011672;28;20248;-62
2021/09/29 12:44:18;;;;;;;4.73;3.30;;;12.50;1.00;;;;;;5011419;28;20694;-62
2021/09/29 12:46:48;;;;;;;3.63;3.33;;;12.70;1.00;;;;;;5011106;28;20211;-62
2021/09/29 12:49:18;;;;;;;6.07;3.67;;;12.90;99.90;;;;;;5011678;28;20901;-62
2021/09/29 12:51:51;;;;;;;4.87;3.73;;;13.00;99.90;;;;;;5011877;28;20310;-62
2021/09/29 12:54:21;;;;;;;4.43;3.83;;;13.10;99.90;;;;;;5011334;28;20700;-66
2021/09/29 12:56:48;;;;;;;4.90;3.83;;;13.20;99.90;;;;;;5011169;28;20663;-63
2021/09/29 12:59:14;;;;;;;4.30;3.90;;;13.20;1.00;;;;;;5011022;28;20246;-63
2021/09/29 13:01:41;;;;;;;8.13;4.17;;;13.20;1.00;;;;;;5015581;28;20234;-64
2021/09/29 13:04:08;;;;;;;7.00;4.50;;;13.20;1.00;;;;;;5015454;28;20228;-62
2021/09/29 13:06:34;;;;;;;4.43;3.90;;;13.20;1.00;;;;;;5015192;28;20213;-62
2021/09/29 13:09:01;;;;;;;5.90;3.73;;;13.10;99.90;;;;;;5015695;28;20230;-62
2021/09/29 13:11:29;;;;;;;6.27;3.70;;;13.00;99.90;;;;;;5015382;28;20217;-62
2021/09/29 13:13:55;;;;;;;4.47;3.10;;;13.00;99.90;;;;;;5015314;28;20767;-63
2021/09/29 13:16:24;;;;;;;4.03;3.00;;;12.90;99.90;;;;;;5014915;28;20221;-62
2021/09/29 13:18:57;;;;;;;3.50;2.60;;;12.60;7.60;;;;;;5015444;28;20241;-64
2021/09/29 13:21:28;;;;;;;4.10;2.77;;;12.20;99.90;;;;;;5015249;28;20223;-66
2021/09/29 13:23:58;;;;;;;2.13;1.70;;;11.70;1.00;;;;;;5015337;28;20700;-66
2021/09/29 13:37:19;;;;;;;3.50;1.27;;;10.10;48.50;;;;;;4995735;28;20202;-64
2021/09/29 13:39:46;;;;;;;5.13;1.03;;;9.90;99.90;;;;;;4995564;28;20210;-64
2021/09/29 13:42:14;;;;;;;1.07;0.83;;;9.80;99.90;;;;;;4995540;28;20234;-64
2021/09/29 13:44:42;;;;;;;1.30;1.00;;;9.80;99.90;;;;;;5003545;28;20240;-66
2021/09/29 13:47:09;;;;;;;3.87;1.53;;;9.80;1.00;;;;;;5014964;28;20277;-63
2021/09/29 13:49:35;;;;;;;6.13;1.30;;;9.80;99.90;;;;;;5015096;28;20230;-63
2021/09/29 13:52:04;;;;;;;2.33;1.10;;;9.90;99.90;;;;;;5015061;28;20207;-63
2021/09/29 13:54:31;;;;;;;2.23;1.40;;;10.00;99.90;;;;;;5014503;28;20207;-62
2021/09/29 13:57:00;;;;;;;2.20;1.50;;;10.00;99.90;;;;;;5014747;28;20223;-63
2021/09/29 13:59:42;;;;;;;3.07;1.80;;;10.10;99.90;;;;;;5014600;28;20241;-65
2021/09/29 14:02:34;;;;;;;5.53;2.63;;;10.20;99.90;;;;;;5014925;28;20280;-64
2021/09/29 14:30:08;;;;;;;2.43;1.43;;;11.10;1.00;;;;;;5015211;28;20289;-64
2021/09/29 14:32:45;;;;;;;2.00;1.20;;;11.10;1.00;;;;;;5014227;28;20583;-66
2021/09/29 14:35:13;;;;;;;1.50;1.23;;;11.10;1.00;;;;;;5014221;28;20210;-66
2021/09/29 14:37:40;;;;;;;2.63;1.40;;;11.10;99.90;;;;;;5014476;28;20660;-65
2021/09/29 14:40:08;;;;;;;2.87;2.10;;;11.10;1.00;;;;;;5014813;28;20663;-65
2021/09/29 14:42:34;;;;;;;5.00;1.60;;;11.10;99.90;;;;;;5014851;28;20251;-66
2021/09/29 14:45:01;;;;;;;3.83;1.87;;;11.10;1.00;;;;;;5013546;28;20214;-66
2021/09/29 14:47:28;;;;;;;2.43;1.60;;;11.10;99.90;;;;;;5014250;28;20218;-66
2021/09/29 14:49:55;;;;;;;3.70;1.77;;;11.20;99.90;;;;;;5014022;28;20211;-74
2021/09/29 14:52:23;;;;;;;2.77;1.43;;;11.30;99.90;;;;;;5013202;28;20672;-63
2021/09/29 14:54:50;;;;;;;3.90;1.73;;;11.40;1.00;;;;;;5013403;28;20218;-63
2021/09/29 14:57:17;;;;;;;4.47;1.40;;;11.50;99.90;;;;;;5013249;28;20211;-63
2021/09/29 14:59:45;;;;;;;3.87;1.40;;;11.50;1.00;;;;;;5013119;28;21051;-67
2021/09/29 15:02:14;;;;;;;3.50;1.83;;;11.60;99.90;;;;;;5013506;28;20227;-67
2021/09/29 15:04:40;;;;;;;4.13;1.50;;;11.70;1.00;;;;;;5013498;28;20208;-66
2021/09/29 15:07:07;;;;;;;2.03;1.33;;;11.70;1.00;;;;;;5012633;28;20210;-65
2021/09/29 15:09:36;;;;;;;7.20;1.90;;;11.70;99.90;;;;;;5013590;28;20227;-66
2021/09/29 15:12:03;;;;;;;4.43;2.10;;;11.60;99.90;;;;;;5013678;28;20213;-66
2021/09/29 15:14:32;;;;;;;2.87;1.43;;;11.50;1.00;;;;;;5012933;28;20675;-67
2021/09/29 15:17:02;;;;;;;4.10;1.63;;;11.50;99.90;;;;;;5013580;28;20218;-68